createdAt,value
2019-05-16T00:00:32.735Z,983.8
2019-05-16T00:01:34.487Z,983.9
2019-05-16T00:02:37.697Z,983.9
2019-05-16T00:03:41.243Z,983.9
2019-05-16T00:04:42.545Z,983.8
2019-05-16T00:05:54.828Z,983.8
2019-05-16T00:06:58.387Z,983.8
2019-05-16T00:08:00.224Z,983.8
2019-05-16T00:09:01.805Z,983.8
2019-05-16T00:10:03.283Z,983.8
2019-05-16T00:11:04.555Z,983.8
2019-05-16T00:12:05.936Z,983.7
2019-05-16T00:13:09.281Z,983.7
2019-05-16T00:14:10.559Z,983.8
2019-05-16T00:15:11.859Z,983.4
2019-05-16T00:16:18.444Z,983.8
2019-05-16T00:17:20.035Z,983.8
2019-05-16T00:18:21.526Z,983.8
2019-05-16T00:19:22.823Z,983.7
2019-05-16T00:20:24.079Z,983.7
2019-05-16T00:21:39.763Z,983.9
2019-05-16T00:22:41.168Z,983.8
2019-05-16T00:23:42.454Z,983.7
2019-05-16T00:24:43.735Z,983.7
2019-05-16T00:25:45.299Z,983.7
2019-05-16T00:26:48.757Z,983.8
2019-05-16T00:27:50.079Z,983.6
2019-05-16T00:28:51.409Z,983.7
2019-05-16T00:29:52.787Z,983.7
2019-05-16T00:30:54.098Z,983.7
2019-05-16T00:31:55.375Z,983.5
2019-05-16T00:32:59.628Z,983.6
2019-05-16T00:34:00.923Z,983.6
2019-05-16T00:35:02.261Z,983.6
2019-05-16T00:36:08.916Z,983.6
2019-05-16T00:37:10.498Z,983.6
2019-05-16T00:38:11.846Z,983.5
2019-05-16T00:39:13.125Z,983.6
2019-05-16T00:40:14.401Z,983.6
2019-05-16T00:41:17.496Z,983.6
2019-05-16T00:42:22.329Z,983.5
2019-05-16T00:43:23.700Z,983.5
2019-05-16T00:44:24.999Z,983.5
2019-05-16T00:45:29.102Z,983.5
2019-05-16T00:46:30.751Z,983.4
2019-05-16T00:47:32.296Z,983.5
2019-05-16T00:48:33.639Z,983.4
2019-05-16T00:49:34.920Z,983.2
2019-05-16T00:50:36.201Z,983.3
2019-05-16T00:51:38.645Z,983.4
2019-05-16T00:52:40.313Z,983.4
2019-05-16T00:53:41.944Z,983.4
2019-05-16T00:54:43.253Z,983.4
2019-05-16T00:55:44.513Z,983.4
2019-05-16T00:56:45.789Z,983.4
2019-05-16T00:57:49.034Z,983.4
2019-05-16T00:58:50.384Z,983.4
2019-05-16T00:59:54.386Z,983.3
2019-05-16T01:00:55.654Z,983.3
2019-05-16T01:01:59.382Z,983.3
2019-05-16T01:03:00.662Z,983.3
2019-05-16T01:04:02.615Z,983.3
2019-05-16T01:05:03.890Z,983.3
2019-05-16T01:06:22.415Z,983.3
2019-05-16T01:07:24.341Z,983.3
2019-05-16T01:08:27.884Z,983.3
2019-05-16T01:09:29.387Z,983.2
2019-05-16T01:10:30.641Z,983.3
2019-05-16T01:11:34.262Z,983.3
2019-05-16T01:12:35.527Z,983.3
2019-05-16T01:13:38.757Z,983.3
2019-05-16T01:14:40.084Z,983.3
2019-05-16T01:15:41.361Z,983.3
2019-05-16T01:16:42.627Z,983.3
2019-05-16T01:17:44.242Z,983.3
2019-05-16T01:18:48.003Z,983.3
2019-05-16T01:19:49.922Z,983.3
2019-05-16T01:20:51.352Z,983.2
2019-05-16T01:21:52.623Z,983.2
2019-05-16T01:22:53.952Z,983.3
2019-05-16T01:23:55.376Z,983.2
2019-05-16T01:24:59.746Z,983.2
2019-05-16T01:26:01.020Z,983.3
2019-05-16T01:27:02.276Z,983.2
2019-05-16T01:28:03.588Z,983.2
2019-05-16T01:29:04.948Z,983.2
2019-05-16T01:30:08.839Z,983.2
2019-05-16T01:31:10.339Z,983.2
2019-05-16T01:32:18.964Z,983.3
2019-05-16T01:33:20.408Z,983.2
2019-05-16T01:34:21.676Z,983.3
2019-05-16T01:35:23.012Z,983.3
2019-05-16T01:36:37.890Z,983.3
2019-05-16T01:37:41.414Z,983.3
2019-05-16T01:38:42.716Z,983.3
2019-05-16T01:39:44.261Z,983.2
2019-05-16T01:40:45.559Z,983.2
2019-05-16T01:41:49.210Z,983.2
2019-05-16T01:42:50.468Z,983.2
2019-05-16T01:43:51.742Z,983.3
2019-05-16T01:44:53.016Z,983.2
2019-05-16T01:45:54.334Z,983.2
2019-05-16T01:46:55.616Z,983.3
2019-05-16T01:47:59.361Z,983.3
2019-05-16T01:49:00.632Z,983.3
2019-05-16T01:50:01.894Z,983.3
2019-05-16T01:51:03.200Z,983.2
2019-05-16T01:52:04.480Z,983.2
2019-05-16T01:53:05.778Z,983.2
2019-05-16T01:54:09.392Z,983.2
2019-05-16T01:55:10.664Z,983.2
2019-05-16T01:56:11.992Z,983.2
2019-05-16T01:57:13.254Z,983.1
2019-05-16T01:58:14.556Z,983.2
2019-05-16T01:59:17.764Z,983.1
2019-05-16T02:00:34.813Z,983.2
2019-05-16T02:01:38.583Z,983.1
2019-05-16T02:02:41.284Z,983.1
2019-05-16T02:03:48.086Z,983
2019-05-16T02:04:49.628Z,983.1
2019-05-16T02:05:50.904Z,982.9
2019-05-16T02:06:58.268Z,983
2019-05-16T02:07:59.732Z,983
2019-05-16T02:09:01.007Z,983
2019-05-16T02:10:02.316Z,983.1
2019-05-16T02:11:03.618Z,983
2019-05-16T02:12:08.091Z,983
2019-05-16T02:13:11.860Z,983
2019-05-16T02:14:13.154Z,983
2019-05-16T02:15:14.436Z,983
2019-05-16T02:16:15.696Z,983
2019-05-16T02:17:19.250Z,983
2019-05-16T02:18:20.532Z,983
2019-05-16T02:19:21.816Z,983.1
2019-05-16T02:20:23.116Z,983
2019-05-16T02:21:24.546Z,983
2019-05-16T02:22:25.854Z,983
2019-05-16T02:23:28.499Z,983
2019-05-16T02:24:30.042Z,982.9
2019-05-16T02:25:31.433Z,982.9
2019-05-16T02:26:33.254Z,982.9
2019-05-16T02:27:34.592Z,982.9
2019-05-16T02:28:50.508Z,982.9
2019-05-16T02:29:52.289Z,982.8
2019-05-16T02:30:53.577Z,982.7
2019-05-16T02:31:56.009Z,982.9
2019-05-16T02:32:57.324Z,982.9
2019-05-16T02:34:01.104Z,982.9
2019-05-16T02:35:03.138Z,982.9
2019-05-16T02:36:04.445Z,982.8
2019-05-16T02:37:29.402Z,982.8
2019-05-16T02:38:37.794Z,982.8
2019-05-16T02:39:41.737Z,982.9
2019-05-16T02:40:43.255Z,982.8
2019-05-16T02:41:47.052Z,982.7
2019-05-16T02:42:50.703Z,982.8
2019-05-16T02:43:52.730Z,982.9
2019-05-16T02:44:54.586Z,982.8
2019-05-16T02:45:56.008Z,982.8
2019-05-16T02:46:57.302Z,982.8
2019-05-16T02:48:20.912Z,982.7
2019-05-16T02:49:22.682Z,982.7
2019-05-16T02:50:24.282Z,982.8
2019-05-16T02:51:25.954Z,982.9
2019-05-16T02:52:27.245Z,982.8
2019-05-16T02:53:31.649Z,982.6
2019-05-16T02:54:34.142Z,982.7
2019-05-16T02:55:35.394Z,982.7
2019-05-16T02:56:36.682Z,982.7
2019-05-16T02:57:42.106Z,982.8
2019-05-16T02:58:45.963Z,982.7
2019-05-16T02:59:50.166Z,982.8
2019-05-16T03:00:52.521Z,982.6
2019-05-16T03:01:56.287Z,982.7
2019-05-16T03:03:01.927Z,982.7
2019-05-16T03:04:03.224Z,982.6
2019-05-16T03:05:04.595Z,982.5
2019-05-16T03:06:05.915Z,982.6
2019-05-16T03:07:07.317Z,982.7
2019-05-16T03:08:11.736Z,982.7
2019-05-16T03:09:16.212Z,982.6
2019-05-16T03:10:21.026Z,982.6
2019-05-16T03:11:22.333Z,982.6
2019-05-16T03:12:23.626Z,982.5
2019-05-16T03:13:24.926Z,982.6
2019-05-16T03:14:26.409Z,982.6
2019-05-16T03:15:30.695Z,982.6
2019-05-16T03:16:32.746Z,982.6
2019-05-16T03:17:34.066Z,982.5
2019-05-16T03:18:35.394Z,982.6
2019-05-16T03:19:36.666Z,982.6
2019-05-16T03:20:41.656Z,982.5
2019-05-16T03:21:42.987Z,982.5
2019-05-16T03:22:44.271Z,982.6
2019-05-16T03:23:45.571Z,982.5
2019-05-16T03:24:46.856Z,982.6
2019-05-16T03:25:51.742Z,982.5
2019-05-16T03:26:53.010Z,982.5
2019-05-16T03:27:54.299Z,982.7
2019-05-16T03:28:55.611Z,982.6
2019-05-16T03:29:56.934Z,982.6
2019-05-16T03:31:06.181Z,982.5
2019-05-16T03:32:13.240Z,982.5
2019-05-16T03:33:31.883Z,982.7
2019-05-16T03:34:35.741Z,982.6
2019-05-16T03:35:45.379Z,982.6
2019-05-16T03:36:55.169Z,982.5
2019-05-16T03:38:05.066Z,982.6
2019-05-16T03:39:06.718Z,982.6
2019-05-16T03:40:11.714Z,982.6
2019-05-16T03:41:15.136Z,982.6
2019-05-16T03:42:16.458Z,982.6
2019-05-16T03:43:17.759Z,982.6
2019-05-16T03:44:22.097Z,982.5
2019-05-16T03:45:23.372Z,982.5
2019-05-16T03:46:24.790Z,982.5
2019-05-16T03:47:26.670Z,982.6
2019-05-16T03:48:30.825Z,982.5
2019-05-16T03:49:32.793Z,982.5
2019-05-16T03:50:34.108Z,982.5
2019-05-16T03:51:41.214Z,982.4
2019-05-16T03:52:44.453Z,982.4
2019-05-16T03:53:45.764Z,982.4
2019-05-16T03:54:51.476Z,982.6
2019-05-16T03:55:52.785Z,982.7
2019-05-16T03:56:54.060Z,982.4
2019-05-16T03:58:01.076Z,982.4
2019-05-16T03:59:02.854Z,982.3
2019-05-16T04:00:04.148Z,982.3
2019-05-16T04:01:05.697Z,982.3
2019-05-16T04:02:07.037Z,982.2
2019-05-16T04:03:11.394Z,982.2
2019-05-16T04:04:13.045Z,982.3
2019-05-16T04:05:14.335Z,982.3
2019-05-16T04:06:15.623Z,982.5
2019-05-16T04:07:21.174Z,982.4
2019-05-16T04:08:26.358Z,982.4
2019-05-16T04:09:27.665Z,982.4
2019-05-16T04:10:31.769Z,982.3
2019-05-16T04:11:33.195Z,982.4
2019-05-16T04:12:34.463Z,982.3
2019-05-16T04:13:35.796Z,982.3
2019-05-16T04:14:40.602Z,982.4
2019-05-16T04:15:42.313Z,982.1
2019-05-16T04:16:43.649Z,982.3
2019-05-16T04:17:47.417Z,982.4
2019-05-16T04:18:52.115Z,982.2
2019-05-16T04:19:53.405Z,982.4
2019-05-16T04:20:54.745Z,982.3
2019-05-16T04:21:56.031Z,982.3
2019-05-16T04:23:00.859Z,982.4
2019-05-16T04:24:02.423Z,982.3
2019-05-16T04:25:03.734Z,982.4
2019-05-16T04:26:05.038Z,982.3
2019-05-16T04:27:11.962Z,982.3
2019-05-16T04:28:13.575Z,982.4
2019-05-16T04:29:14.969Z,982.3
2019-05-16T04:30:16.268Z,982.3
2019-05-16T04:31:17.579Z,982.2
2019-05-16T04:32:21.770Z,982.3
2019-05-16T04:33:23.510Z,982.3
2019-05-16T04:34:31.061Z,982.4
2019-05-16T04:35:32.577Z,982.4
2019-05-16T04:36:33.847Z,982.4
2019-05-16T04:37:35.123Z,982.4
2019-05-16T04:38:46.851Z,982.4
2019-05-16T04:39:51.399Z,982.3
2019-05-16T04:40:54.858Z,982.3
2019-05-16T04:41:56.131Z,982.3
2019-05-16T04:43:00.582Z,982.4
2019-05-16T04:44:05.693Z,982.2
2019-05-16T04:45:07.363Z,982.3
2019-05-16T04:46:12.381Z,982.3
2019-05-16T04:47:13.664Z,982.1
2019-05-16T04:48:14.950Z,982.3
2019-05-16T04:49:16.249Z,982.3
2019-05-16T04:50:20.797Z,982.4
2019-05-16T04:51:22.922Z,982.3
2019-05-16T04:52:30.605Z,982.3
2019-05-16T04:53:32.570Z,982.5
2019-05-16T04:54:33.853Z,982.3
2019-05-16T04:55:35.261Z,982.1
2019-05-16T04:56:36.561Z,982.4
2019-05-16T04:57:37.827Z,982.3
2019-05-16T04:58:41.689Z,982.2
2019-05-16T04:59:43.297Z,982.3
2019-05-16T05:00:44.626Z,982.2
2019-05-16T05:01:45.939Z,982.2
2019-05-16T05:02:47.206Z,982.3
2019-05-16T05:04:11.466Z,982.4
2019-05-16T05:05:16.088Z,982.4
2019-05-16T05:06:20.127Z,982.4
2019-05-16T05:07:22.020Z,982.3
2019-05-16T05:08:23.459Z,982.3
2019-05-16T05:09:24.759Z,982.2
2019-05-16T05:10:26.042Z,982.3
2019-05-16T05:11:30.467Z,982.4
2019-05-16T05:12:32.370Z,982.3
2019-05-16T05:13:33.667Z,982.3
2019-05-16T05:14:34.974Z,982.2
2019-05-16T05:15:36.302Z,982.3
2019-05-16T05:16:37.619Z,982.3
2019-05-16T05:17:41.831Z,982.3
2019-05-16T05:18:43.113Z,982.2
2019-05-16T05:19:45.785Z,982.2
2019-05-16T05:20:47.100Z,982.3
2019-05-16T05:21:51.178Z,982.3
2019-05-16T05:22:52.726Z,982.3
2019-05-16T05:23:54.030Z,982.3
2019-05-16T05:24:55.310Z,982.3
2019-05-16T05:26:00.059Z,982.1
2019-05-16T05:27:01.653Z,982
2019-05-16T05:28:02.936Z,982.1
2019-05-16T05:29:04.230Z,982
2019-05-16T05:30:05.500Z,982.1
2019-05-16T05:31:06.811Z,982.1
2019-05-16T05:32:13.965Z,982.1
2019-05-16T05:33:15.490Z,982
2019-05-16T05:34:16.780Z,982
2019-05-16T05:35:21.290Z,982
2019-05-16T05:36:25.650Z,981.9
2019-05-16T05:37:26.960Z,982
2019-05-16T05:38:30.819Z,982.2
2019-05-16T05:39:32.326Z,982.2
2019-05-16T05:40:33.612Z,982.2
2019-05-16T05:41:34.893Z,982.3
2019-05-16T05:42:36.274Z,982.1
2019-05-16T05:43:39.611Z,982.1
2019-05-16T05:44:41.080Z,982.1
2019-05-16T05:45:42.398Z,982.1
2019-05-16T05:46:43.738Z,982.2
2019-05-16T05:47:45.084Z,982.3
2019-05-16T05:48:46.394Z,982.2
2019-05-16T05:49:50.437Z,982.1
2019-05-16T05:50:51.897Z,982
2019-05-16T05:52:00.084Z,982.2
2019-05-16T05:53:05.276Z,982.2
2019-05-16T05:54:06.551Z,982.2
2019-05-16T05:55:10.351Z,982.1
2019-05-16T05:56:13.580Z,982
2019-05-16T05:57:14.868Z,982.1
2019-05-16T05:58:16.207Z,982.1
2019-05-16T05:59:19.927Z,982.2
2019-05-16T06:00:23.970Z,982.2
2019-05-16T06:01:25.304Z,982.2
2019-05-16T06:02:27.664Z,982.1
2019-05-16T06:03:33.437Z,982.1
2019-05-16T06:04:34.758Z,982.2
2019-05-16T06:05:36.040Z,982.3
2019-05-16T06:06:37.334Z,982.4
2019-05-16T06:07:45.018Z,982.4
2019-05-16T06:08:51.096Z,982.4
2019-05-16T06:09:57.167Z,982.4
2019-05-16T06:11:00.549Z,982.4
2019-05-16T06:12:02.285Z,982.3
2019-05-16T06:13:03.589Z,982.3
2019-05-16T06:14:05.297Z,982.3
2019-05-16T06:15:12.572Z,982.3
2019-05-16T06:16:14.108Z,982.3
2019-05-16T06:17:15.416Z,982.2
2019-05-16T06:18:16.774Z,982.3
2019-05-16T06:19:20.357Z,982.3
2019-05-16T06:20:21.838Z,982.2
2019-05-16T06:21:23.126Z,982.2
2019-05-16T06:22:26.228Z,982.2
2019-05-16T06:23:31.021Z,982.2
2019-05-16T06:24:32.604Z,982.3
2019-05-16T06:25:33.901Z,982.2
2019-05-16T06:26:35.281Z,982.2
2019-05-16T06:27:36.596Z,982.2
2019-05-16T06:28:41.049Z,982.2
2019-05-16T06:29:42.634Z,982.3
2019-05-16T06:30:43.966Z,982.2
2019-05-16T06:31:45.268Z,982.2
2019-05-16T06:32:46.563Z,982.2
2019-05-16T06:33:50.764Z,982.2
2019-05-16T06:34:54.741Z,982.2
2019-05-16T06:35:56.079Z,982.2
2019-05-16T06:36:57.399Z,982.2
2019-05-16T06:38:01.305Z,982.2
2019-05-16T06:39:02.668Z,982.2
2019-05-16T06:40:06.638Z,982.2
2019-05-16T06:41:10.057Z,982.2
2019-05-16T06:42:11.926Z,982.2
2019-05-16T06:43:13.279Z,982.3
2019-05-16T06:44:14.567Z,982.3
2019-05-16T06:45:16.569Z,982.2
2019-05-16T06:46:20.957Z,982.2
2019-05-16T06:47:25.195Z,982.1
2019-05-16T06:48:39.803Z,982.2
2019-05-16T06:49:41.804Z,982.3
2019-05-16T06:50:43.209Z,982.3
2019-05-16T06:51:44.515Z,982.3
2019-05-16T06:52:50.138Z,982.3
2019-05-16T06:53:51.571Z,982.4
2019-05-16T06:54:54.685Z,982.4
2019-05-16T06:55:59.580Z,982.3
2019-05-16T06:57:01.379Z,982.3
2019-05-16T06:58:02.740Z,982.3
2019-05-16T06:59:04.109Z,982.2
2019-05-16T07:00:05.431Z,982.3
2019-05-16T07:01:06.838Z,982.3
2019-05-16T07:02:10.464Z,982.2
2019-05-16T07:03:20.363Z,982.2
2019-05-16T07:04:21.991Z,982.3
2019-05-16T07:05:24.700Z,982.2
2019-05-16T07:06:58.246Z,982.2
2019-05-16T07:08:00.599Z,982.2
2019-05-16T07:09:01.938Z,982
2019-05-16T07:10:05.572Z,982.1
2019-05-16T07:11:06.887Z,982
2019-05-16T07:12:10.327Z,982.2
2019-05-16T07:13:11.817Z,982.1
2019-05-16T07:14:13.372Z,982.1
2019-05-16T07:15:14.717Z,982.1
2019-05-16T07:16:16.035Z,982.1
2019-05-16T07:17:17.392Z,982.1
2019-05-16T07:18:22.094Z,982.1
2019-05-16T07:19:23.407Z,982.1
2019-05-16T07:20:26.056Z,982
2019-05-16T07:21:27.683Z,982
2019-05-16T07:22:34.529Z,982
2019-05-16T07:23:35.830Z,982
2019-05-16T07:24:37.133Z,982
2019-05-16T07:25:40.614Z,982
2019-05-16T07:26:42.329Z,982.1
2019-05-16T07:27:43.777Z,982.1
2019-05-16T07:28:45.081Z,982
2019-05-16T07:29:47.659Z,982
2019-05-16T07:30:50.820Z,982
2019-05-16T07:31:53.183Z,981.9
2019-05-16T07:32:56.072Z,982
2019-05-16T07:33:57.705Z,981.9
2019-05-16T07:35:01.211Z,981.9
2019-05-16T07:36:02.817Z,981.9
2019-05-16T07:37:04.315Z,982
2019-05-16T07:38:05.747Z,982
2019-05-16T07:39:07.068Z,982
2019-05-16T07:40:26.396Z,981.9
2019-05-16T07:41:30.872Z,981.9
2019-05-16T07:42:32.608Z,981.9
2019-05-16T07:43:37.064Z,981.9
2019-05-16T07:44:40.659Z,981.9
2019-05-16T07:45:45.217Z,981.7
2019-05-16T07:46:52.139Z,981.9
2019-05-16T07:47:53.494Z,981.9
2019-05-16T07:48:54.932Z,981.8
2019-05-16T07:50:00.934Z,981.8
2019-05-16T07:51:02.315Z,981.8
2019-05-16T07:52:03.763Z,981.8
2019-05-16T07:53:07.370Z,981.8
2019-05-16T07:54:13.342Z,981.8
2019-05-16T07:55:14.653Z,981.9
2019-05-16T07:56:15.966Z,981.8
2019-05-16T07:57:23.222Z,981.8
2019-05-16T07:58:24.946Z,981.8
2019-05-16T07:59:26.288Z,981.8
2019-05-16T08:00:54.079Z,981.8
2019-05-16T08:02:01.353Z,981.7
2019-05-16T08:03:02.672Z,981.7
2019-05-16T08:04:04.219Z,981.7
2019-05-16T08:05:05.625Z,981.8
2019-05-16T08:06:06.962Z,981.7
2019-05-16T08:07:10.631Z,981.8
2019-05-16T08:08:12.392Z,981.7
2019-05-16T08:09:17.480Z,981.7
2019-05-16T08:10:45.498Z,981.7
2019-05-16T08:11:50.111Z,981.7
2019-05-16T08:14:52.159Z,981.6
2019-05-16T08:15:55.811Z,981.6
2019-05-16T08:16:57.257Z,981.6
2019-05-16T08:18:03.800Z,981.5
2019-05-16T08:19:05.155Z,981.5
2019-05-16T08:20:06.652Z,981.5
2019-05-16T08:21:16.044Z,981.6
2019-05-16T08:22:18.026Z,981.4
2019-05-16T08:23:22.949Z,981.5
2019-05-16T08:24:24.334Z,981.4
2019-05-16T08:25:25.654Z,981.4
2019-05-16T08:26:27.002Z,981.5
2019-05-16T08:27:31.789Z,981.4
2019-05-16T08:28:34.513Z,981.5
2019-05-16T08:29:35.937Z,981.4
2019-05-16T08:30:40.989Z,981.4
2019-05-16T08:31:44.081Z,981.4
2019-05-16T08:32:46.272Z,981.4
2019-05-16T08:33:47.686Z,981.4
2019-05-16T08:34:52.116Z,981.4
2019-05-16T08:35:53.428Z,981.5
2019-05-16T08:36:54.994Z,981.4
2019-05-16T08:38:08.308Z,981.4
2019-05-16T08:39:12.180Z,981.4
2019-05-16T08:40:13.474Z,981.2
2019-05-16T08:43:21.692Z,981.3
2019-05-16T08:44:26.166Z,981.4
2019-05-16T08:45:27.480Z,981.3
2019-05-16T08:46:33.017Z,981.4
2019-05-16T08:47:34.360Z,981.3
2019-05-16T08:48:42.835Z,981.3
2019-05-16T08:49:46.464Z,981.2
2019-05-16T08:50:55.290Z,981.2
2019-05-16T08:51:56.749Z,981.3
2019-05-16T08:53:04.162Z,981.3
2019-05-16T08:54:07.514Z,981.3
2019-05-16T08:55:15.344Z,981.3
2019-05-16T08:56:23.399Z,981.3
2019-05-16T08:57:32.471Z,981.3
2019-05-16T08:58:43.522Z,981.3
2019-05-16T08:59:45.160Z,981.2
2019-05-16T09:00:46.520Z,981.3
2019-05-16T09:03:52.738Z,981.2
2019-05-16T09:05:05.469Z,981.3
2019-05-16T09:06:07.142Z,981.2
2019-05-16T09:07:12.338Z,981.2
2019-05-16T09:08:13.926Z,981
2019-05-16T09:09:49.173Z,981.1
2019-05-16T09:11:49.156Z,981.1
2019-05-16T09:13:00.328Z,981.1
2019-05-16T09:14:04.139Z,981.1
2019-05-16T09:15:08.522Z,981
2019-05-16T09:16:09.935Z,981.1
2019-05-16T09:17:28.399Z,980.9
2019-05-16T09:18:30.140Z,981
2019-05-16T09:19:32.831Z,980.8
2019-05-16T09:20:42.873Z,981
2019-05-16T09:21:47.526Z,981
2019-05-16T09:22:49.140Z,981
2019-05-16T09:23:54.339Z,981
2019-05-16T09:24:58.563Z,980.9
2019-05-16T09:26:02.345Z,981
2019-05-16T09:27:09.339Z,981
2019-05-16T09:28:12.775Z,981
2019-05-16T09:29:16.822Z,980.9
2019-05-16T09:30:22.248Z,981
2019-05-16T09:31:31.253Z,980.9
2019-05-16T09:32:32.634Z,980.9
2019-05-16T09:33:34.001Z,980.9
2019-05-16T09:34:44.304Z,980.9
2019-05-16T09:35:50.749Z,980.9
2019-05-16T09:36:59.929Z,980.9
2019-05-16T09:38:07.156Z,980.8
2019-05-16T09:39:16.834Z,980.7
2019-05-16T09:40:21.637Z,980.8
2019-05-16T09:41:23.261Z,980.8
2019-05-16T09:42:33.406Z,980.8
2019-05-16T09:43:34.750Z,980.8
2019-05-16T09:44:37.820Z,980.9
2019-05-16T09:45:39.505Z,980.8
2019-05-16T09:46:43.602Z,980.8
2019-05-16T09:47:49.199Z,980.8
2019-05-16T09:49:02.076Z,980.8
2019-05-16T09:50:13.181Z,980.8
2019-05-16T09:51:17.604Z,980.8
2019-05-16T09:52:19.658Z,980.8
2019-05-16T09:53:30.720Z,980.8
2019-05-16T09:54:38.075Z,980.8
2019-05-16T09:55:39.499Z,980.9
2019-05-16T09:56:40.806Z,980.8
2019-05-16T09:57:43.216Z,980.8
2019-05-16T09:58:46.297Z,980.9
2019-05-16T09:59:49.379Z,980.8
2019-05-16T10:00:53.427Z,980.9
2019-05-16T10:01:57.715Z,980.8
2019-05-16T10:03:02.099Z,980.9
2019-05-16T10:04:03.418Z,980.8
2019-05-16T10:05:04.812Z,980.8
2019-05-16T10:06:08.958Z,980.7
2019-05-16T10:07:11.772Z,980.7
2019-05-16T10:08:13.133Z,980.7
2019-05-16T10:09:17.222Z,980.7
2019-05-16T10:10:20.544Z,980.6
2019-05-16T10:12:33.528Z,980.7
2019-05-16T10:13:37.501Z,980.4
2019-05-16T10:14:39.303Z,980.6
2019-05-16T10:15:40.804Z,980.7
2019-05-16T10:16:42.207Z,980.6
2019-05-16T10:17:47.415Z,980.6
2019-05-16T10:18:56.199Z,980.6
2019-05-16T10:20:01.900Z,980.5
2019-05-16T10:21:03.248Z,980.5
2019-05-16T10:22:07.087Z,980.5
2019-05-16T10:23:18.050Z,980.4
2019-05-16T10:24:21.951Z,980.4
2019-05-16T10:25:33.324Z,980.4
2019-05-16T10:26:37.034Z,980.3
2019-05-16T10:27:38.950Z,980.4
2019-05-16T10:28:40.282Z,980.4
2019-05-16T10:29:41.701Z,980.4
2019-05-16T10:30:47.033Z,980.2
2019-05-16T10:31:56.924Z,980.4
2019-05-16T10:33:01.484Z,980.4
2019-05-16T10:34:08.357Z,980.4
2019-05-16T10:35:09.672Z,980.3
2019-05-16T10:36:10.999Z,980.3
2019-05-16T10:37:13.574Z,980.2
2019-05-16T10:38:15.380Z,980.3
2019-05-16T10:39:16.823Z,980.3
2019-05-16T10:40:19.353Z,980.3
2019-05-16T10:41:22.177Z,980.3
2019-05-16T10:42:29.399Z,980.2
2019-05-16T10:43:30.910Z,980.2
2019-05-16T10:44:38.317Z,980.2
2019-05-16T10:45:43.006Z,980.2
2019-05-16T10:46:48.657Z,980.2
2019-05-16T10:47:51.671Z,980.2
2019-05-16T10:48:53.039Z,980.1
2019-05-16T10:49:56.414Z,980.2
2019-05-16T10:50:58.558Z,980.3
2019-05-16T10:51:59.913Z,980.2
2019-05-16T10:54:38.833Z,980.2
2019-05-16T10:55:48.523Z,980.1
2019-05-16T10:56:49.998Z,980.1
2019-05-16T10:57:51.549Z,980.1
2019-05-16T10:59:35.806Z,980.1
2019-05-16T11:01:23.934Z,980.1
2019-05-16T11:02:28.345Z,980.1
2019-05-16T11:03:30.147Z,980.1
2019-05-16T11:05:00.405Z,979.8
2019-05-16T11:06:25.476Z,980
2019-05-16T11:07:30.778Z,980.1
2019-05-16T11:08:46.549Z,980.1
2019-05-16T11:10:02.892Z,980.1
2019-05-16T11:11:10.152Z,980
2019-05-16T11:12:11.555Z,980.1
2019-05-16T11:13:13.309Z,980
2019-05-16T11:14:18.223Z,980
2019-05-16T11:15:19.765Z,980
2019-05-16T11:16:21.309Z,980
2019-05-16T11:17:23.318Z,980
2019-05-16T11:18:29.744Z,980
2019-05-16T11:19:40.024Z,980
2019-05-16T11:20:49.053Z,979.8
2019-05-16T11:21:51.020Z,980
2019-05-16T11:22:52.404Z,979.9
2019-05-16T11:23:53.733Z,980
2019-05-16T11:24:57.893Z,980.1
2019-05-16T11:25:59.348Z,980
2019-05-16T11:27:00.646Z,980
2019-05-16T11:28:02.033Z,980
2019-05-16T11:29:03.357Z,979.9
2019-05-16T11:30:04.777Z,979.7
2019-05-16T11:31:11.483Z,979.9
2019-05-16T11:32:12.835Z,979.8
2019-05-16T11:33:17.944Z,979.9
2019-05-16T11:34:19.251Z,980
2019-05-16T11:35:20.616Z,980
2019-05-16T11:36:21.968Z,980
2019-05-16T11:37:23.312Z,979.9
2019-05-16T11:38:27.145Z,980
2019-05-16T11:39:28.499Z,979.9
2019-05-16T11:40:33.454Z,979.9
2019-05-16T11:41:34.787Z,979.9
2019-05-16T11:42:41.369Z,979.9
2019-05-16T11:43:42.691Z,979.9
2019-05-16T11:44:47.181Z,979.9
2019-05-16T11:45:54.072Z,979.9
2019-05-16T11:46:59.782Z,979.8
2019-05-16T11:48:11.292Z,979.8
2019-05-16T11:49:16.862Z,979.8
2019-05-16T11:50:18.650Z,979.8
2019-05-16T11:51:19.963Z,979.7
2019-05-16T11:52:21.305Z,979.7
2019-05-16T11:53:28.103Z,979.8
2019-05-16T11:54:30.644Z,979.7
2019-05-16T11:55:50.063Z,979.7
2019-05-16T11:56:57.771Z,979.7
2019-05-16T11:58:02.030Z,979.6
2019-05-16T11:59:03.398Z,979.6
2019-05-16T12:00:04.981Z,979.7
2019-05-16T12:01:08.303Z,979.7
2019-05-16T12:02:09.624Z,979.7
2019-05-16T12:03:10.921Z,979.6
2019-05-16T12:04:18.013Z,979.6
2019-05-16T12:05:20.644Z,979.6
2019-05-16T12:06:23.410Z,979.7
2019-05-16T12:07:34.841Z,979.6
2019-05-16T12:08:37.812Z,979.6
2019-05-16T12:09:55.620Z,979.6
2019-05-16T12:10:57.462Z,979.6
2019-05-16T12:12:05.189Z,979.6
2019-05-16T12:13:25.063Z,979.4
2019-05-16T12:14:29.057Z,979.5
2019-05-16T12:15:30.489Z,979.6
2019-05-16T12:16:31.821Z,979.5
2019-05-16T12:17:33.322Z,979.5
2019-05-16T12:18:37.119Z,979.5
2019-05-16T12:19:47.471Z,979.5
2019-05-16T12:20:49.050Z,979.5
2019-05-16T12:21:50.444Z,979.5
2019-05-16T12:22:51.750Z,979.5
2019-05-16T12:23:57.701Z,979.5
2019-05-16T12:24:59.042Z,979.5
2019-05-16T12:27:09.842Z,979.5
2019-05-16T12:28:11.163Z,979.5
2019-05-16T12:29:12.688Z,979.5
2019-05-16T12:30:26.182Z,979.1
2019-05-16T12:31:27.594Z,979.4
2019-05-16T12:32:31.973Z,979.4
2019-05-16T12:33:37.284Z,979.4
2019-05-16T12:34:39.074Z,979.4
2019-05-16T12:35:40.392Z,979.4
2019-05-16T12:36:41.778Z,979.4
2019-05-16T12:37:43.493Z,979.4
2019-05-16T12:38:52.893Z,979.3
2019-05-16T12:39:57.319Z,979.3
2019-05-16T12:40:58.749Z,979.3
2019-05-16T12:42:00.800Z,979.3
2019-05-16T12:43:02.206Z,979.3
2019-05-16T12:44:03.770Z,979.3
2019-05-16T12:45:06.866Z,979.2
2019-05-16T12:46:08.738Z,979.3
2019-05-16T12:47:10.061Z,979.2
2019-05-16T12:48:11.426Z,979.2
2019-05-16T12:49:13.734Z,979
2019-05-16T12:50:18.303Z,979.2
2019-05-16T12:51:22.815Z,979.2
2019-05-16T12:52:26.896Z,979.1
2019-05-16T12:53:33.076Z,979.1
2019-05-16T12:54:38.077Z,979.2
2019-05-16T12:55:39.412Z,979.1
2019-05-16T12:56:43.272Z,979.1
2019-05-16T12:57:50.342Z,979.1
2019-05-16T12:58:56.702Z,979.2
2019-05-16T12:59:58.088Z,979.1
2019-05-16T13:01:07.413Z,979.1
2019-05-16T13:02:09.152Z,979.1
2019-05-16T13:03:12.548Z,979
2019-05-16T13:04:19.977Z,978.9
2019-05-16T13:05:21.298Z,979.1
2019-05-16T13:06:22.675Z,979.1
2019-05-16T13:07:24.029Z,979.1
2019-05-16T13:08:27.734Z,979.1
2019-05-16T13:09:39.277Z,979.1
2019-05-16T13:10:42.169Z,979
2019-05-16T13:11:43.509Z,979
2019-05-16T13:12:47.597Z,979
2019-05-16T13:14:06.737Z,978.9
2019-05-16T13:15:09.536Z,978.9
2019-05-16T13:16:11.036Z,979
2019-05-16T13:17:12.724Z,978.9
2019-05-16T13:18:17.639Z,978.9
2019-05-16T13:19:19.256Z,978.9
2019-05-16T13:20:20.682Z,978.9
2019-05-16T13:21:23.797Z,978.9
2019-05-16T13:22:27.503Z,978.8
2019-05-16T13:23:28.975Z,978.8
2019-05-16T13:24:30.306Z,978.8
2019-05-16T13:25:33.860Z,978.8
2019-05-16T13:26:38.158Z,978.8
2019-05-16T13:27:42.306Z,978.8
2019-05-16T13:28:43.654Z,978.7
2019-05-16T13:29:48.342Z,978.8
2019-05-16T13:30:52.178Z,978.8
2019-05-16T13:31:53.569Z,978.8
2019-05-16T13:32:59.033Z,978.8
2019-05-16T13:34:00.414Z,978.8
2019-05-16T13:35:11.158Z,978.7
2019-05-16T13:36:12.871Z,978.8
2019-05-16T13:37:17.566Z,978.7
2019-05-16T13:38:19.794Z,978.7
2019-05-16T13:39:21.109Z,978.7
2019-05-16T13:40:27.459Z,978.6
2019-05-16T13:41:29.025Z,978.7
2019-05-16T13:42:30.361Z,978.7
2019-05-16T13:43:33.031Z,978.7
2019-05-16T13:44:34.596Z,978.6
2019-05-16T13:45:38.409Z,978.6
2019-05-16T13:46:39.790Z,978.6
2019-05-16T13:47:41.091Z,978.6
2019-05-16T13:48:42.425Z,978.6
2019-05-16T13:49:44.291Z,978.6
2019-05-16T13:50:48.999Z,978.6
2019-05-16T13:51:52.941Z,978.6
2019-05-16T13:52:54.273Z,978.6
2019-05-16T13:53:55.591Z,978.5
2019-05-16T13:54:57.179Z,978.6
2019-05-16T13:56:01.199Z,978.6
2019-05-16T13:57:02.828Z,978.6